SEKCJA WYDRUKÓW, pokaż »

METAR EPBY 160800Z 25020KT 9999 -SHRA SCT024CB BKN032 07/02 Q0997=

METAR EPGD 160800Z 26014KT 9999 SCT005 BKN009 02/01 Q0993 =

METAR EPKK 160800Z 28010KT 9999 FEW030 08/02 Q1003 =

METAR EPKT 160800Z 27017G28KT 9999 FEW032 07/M00 Q1003 =

METAR EPLB 160800Z 28017KT 9999 SCT024 SCT030 10/06 Q1000 =

METAR EPLL 160800Z 25020KT 9999 FEW029 BKN038 07/00 Q1000 =

METAR EPML 160800Z AUTO 26012KT 9999 OVC029/// 09/04 Q////=

METAR EPMO 160800Z 25024KT 9999 SCT028 BKN039 07/02 Q0998 =

METAR EPPO 160800Z 23012KT 9999 BKN023 07/02 Q0999 =

METAR COR EPRA 160800Z 28018KT 9999 SCT030 07/01 Q1001=

METAR EPRZ 160800Z 25012KT 9999 -SHRA BKN030CB 11/08 Q1002 =

METAR EPSC 160800Z 24011KT 9999 -SHRA SCT015TCU OVC017 06/03 Q0996 =

METAR EPSY 160800Z 23013G26KT 200V270 9999 -RA FEW005 SCT012 BKN019
05/03 Q0995=

METAR EPWA 160800Z 27018KT 9999 BKN030 08/02 Q0999 NOSIG=

METAR EPWR 160800Z 26015KT 9999 FEW036 09/M00 Q1002 =

METAR EPZG 160800Z 23016KT 9999 SCT028 OVC045 07/04 Q1000 =
 METAR EPGD
Lokalizacja:EPGD Gdańsk Lech Wałęsa
Czas:08:00 UTC
Średni kierunek wiatru:260 °
Średnia prędkość wiatru:14 węzłów
Widzialność:10 km i więcej
Pierwsza warstwa chmur:3/8 do 4/8, wysokość podstawy 500 FT
Druga warstwa chmur:5/8 do 7/8, wysokość podstawy 900 FT
Temperatura powietrza:2 °C
Temperatura punktu rosy:1 °C
Ciśnienie QNH:993 hPa